createdAt,value
2022-08-10T00:01:09.378Z,102118.41
2022-08-10T00:03:37.173Z,102115.03
2022-08-10T00:06:04.664Z,102114.03
2022-08-10T00:08:31.569Z,102115.97
2022-08-10T00:10:58.378Z,102108.69
2022-08-10T00:13:25.258Z,102109.00
2022-08-10T00:15:55.028Z,102113.75
2022-08-10T00:18:34.678Z,102119.00
2022-08-10T00:21:02.875Z,102120.28
2022-08-10T00:23:30.303Z,102118.13
2022-08-10T00:25:57.166Z,102124.56
2022-08-10T00:28:24.157Z,102120.00
2022-08-10T00:30:51.165Z,102112.53
2022-08-10T00:33:18.312Z,102115.41
2022-08-10T00:35:45.441Z,102120.19
2022-08-10T00:38:12.534Z,102125.25
2022-08-10T00:40:39.399Z,102130.06
2022-08-10T00:43:06.390Z,102125.84
2022-08-10T00:45:33.607Z,102120.63
2022-08-10T00:48:00.809Z,102128.56
2022-08-10T00:50:27.901Z,102114.78
2022-08-10T00:52:55.558Z,102115.06
2022-08-10T00:55:22.365Z,102115.13
2022-08-10T00:57:55.496Z,102111.31
2022-08-10T01:00:22.493Z,102112.84
2022-08-10T01:02:50.572Z,102111.94
2022-08-10T01:05:19.334Z,102108.84
2022-08-10T01:07:46.160Z,102103.94
2022-08-10T01:10:12.967Z,102112.41
2022-08-10T01:12:41.572Z,102107.03
2022-08-10T01:15:10.573Z,102096.72
2022-08-10T01:17:50.221Z,102093.44
2022-08-10T01:20:30.600Z,102102.69
2022-08-10T01:22:58.090Z,102106.31
2022-08-10T01:25:24.900Z,102093.69
2022-08-10T01:27:52.344Z,102094.06
2022-08-10T01:30:20.728Z,102088.53
2022-08-10T01:32:47.593Z,102090.72
2022-08-10T01:35:14.397Z,102082.72
2022-08-10T01:37:41.188Z,102095.34
2022-08-10T01:40:09.909Z,102084.66
2022-08-10T01:42:37.160Z,102094.41
2022-08-10T01:45:04.050Z,102092.56
2022-08-10T01:47:49.581Z,102093.09
2022-08-10T01:50:16.374Z,102096.09
2022-08-10T01:52:43.161Z,102099.44
2022-08-10T01:55:09.960Z,102098.50
2022-08-10T01:57:36.773Z,102093.97
2022-08-10T02:00:03.758Z,102099.09
2022-08-10T02:02:30.630Z,102091.13
2022-08-10T02:04:57.465Z,102099.47
2022-08-10T02:07:24.360Z,102101.97
2022-08-10T02:09:51.230Z,102098.19
2022-08-10T02:12:18.042Z,102100.16
2022-08-10T02:14:44.914Z,102102.13
2022-08-10T02:18:00.178Z,102091.84
2022-08-10T02:19:59.477Z,102092.63
2022-08-10T02:22:37.117Z,102101.22
2022-08-10T02:25:05.556Z,102096.09
2022-08-10T02:27:32.381Z,102104.50
2022-08-10T02:29:59.231Z,102107.25
2022-08-10T02:32:37.997Z,102094.00
2022-08-10T02:35:05.674Z,102096.09
2022-08-10T02:37:32.641Z,102092.84
2022-08-10T02:39:59.485Z,102087.91
2022-08-10T02:45:20.986Z,102089.66
2022-08-10T02:45:29.124Z,102085.34
2022-08-10T02:47:57.623Z,102086.72
2022-08-10T02:50:24.728Z,102083.19
2022-08-10T02:52:51.727Z,102088.22
2022-08-10T02:55:18.779Z,102089.13
2022-08-10T02:58:17.380Z,102092.47
2022-08-10T03:00:35.876Z,102095.22
2022-08-10T03:03:02.694Z,102091.88
2022-08-10T03:05:29.504Z,102093.38
2022-08-10T03:07:56.322Z,102093.03
2022-08-10T03:10:23.137Z,102090.38
2022-08-10T03:12:50.407Z,102096.81
2022-08-10T03:15:17.825Z,102093.78
2022-08-10T03:17:57.866Z,102090.78
2022-08-10T03:20:37.219Z,102097.31
2022-08-10T03:23:06.441Z,102094.44
2022-08-10T03:25:33.302Z,102100.16
2022-08-10T03:28:00.195Z,102089.41
2022-08-10T03:30:33.592Z,102087.38
2022-08-10T03:33:00.888Z,102097.94
2022-08-10T03:35:27.745Z,102088.31
2022-08-10T03:37:59.271Z,102092.50
2022-08-10T03:40:44.846Z,102103.97
2022-08-10T03:43:13.657Z,102097.09
2022-08-10T03:45:55.180Z,102104.59
2022-08-10T03:48:23.139Z,102109.44
2022-08-10T03:50:51.954Z,102112.22
2022-08-10T03:53:25.714Z,102113.34
2022-08-10T03:56:29.196Z,102110.94
2022-08-10T03:58:53.926Z,102104.06
2022-08-10T04:01:20.813Z,102100.66
2022-08-10T04:04:12.995Z,102101.41
2022-08-10T04:06:42.397Z,102109.91
2022-08-10T04:09:09.189Z,102120.75
2022-08-10T04:11:37.308Z,102121.53
2022-08-10T04:14:07.726Z,102119.00
2022-08-10T04:16:54.846Z,102126.25
2022-08-10T04:19:21.668Z,102116.09
2022-08-10T04:21:48.474Z,102112.34
2022-08-10T04:24:26.247Z,102116.69
2022-08-10T04:26:56.862Z,102121.28
2022-08-10T04:29:23.857Z,102115.41
2022-08-10T04:31:50.729Z,102117.16
2022-08-10T04:34:17.607Z,102113.47
2022-08-10T04:36:44.608Z,102109.94
2022-08-10T04:39:12.413Z,102111.00
2022-08-10T04:41:39.334Z,102114.34
2022-08-10T04:44:13.809Z,102118.16
2022-08-10T04:46:56.390Z,102116.28
2022-08-10T04:49:53.501Z,102116.06
2022-08-10T04:52:13.497Z,102122.97
2022-08-10T04:54:40.614Z,102129.34
2022-08-10T04:57:09.439Z,102132.94
2022-08-10T04:59:36.610Z,102134.31
2022-08-10T05:02:30.712Z,102134.16
2022-08-10T05:04:53.933Z,102129.44
2022-08-10T05:07:21.200Z,102135.19
2022-08-10T05:10:03.787Z,102135.34
2022-08-10T05:12:34.516Z,102132.53
2022-08-10T05:15:03.457Z,102138.72
2022-08-10T05:17:30.314Z,102140.31
2022-08-10T05:20:04.364Z,102141.34
2022-08-10T05:22:32.991Z,102143.13
2022-08-10T05:25:00.155Z,102135.16
2022-08-10T05:27:26.994Z,102157.72
2022-08-10T05:30:02.469Z,102154.66
2022-08-10T05:32:29.905Z,102146.50
2022-08-10T05:34:56.965Z,102151.91
2022-08-10T05:38:11.543Z,102151.84
2022-08-10T05:40:10.761Z,102157.69
2022-08-10T05:42:37.966Z,102153.50
2022-08-10T05:45:04.940Z,102158.03
2022-08-10T05:48:57.922Z,102152.94
2022-08-10T05:50:19.034Z,102153.56
2022-08-10T05:52:46.058Z,102152.91
2022-08-10T05:55:12.920Z,102154.88
2022-08-10T05:57:44.018Z,102151.50
2022-08-10T06:00:34.658Z,102150.94
2022-08-10T06:02:59.672Z,102160.38
2022-08-10T06:05:26.514Z,102159.97
2022-08-10T06:07:53.313Z,102168.28
2022-08-10T06:10:31.690Z,102160.16
2022-08-10T06:13:29.915Z,102152.41
2022-08-10T06:16:01.046Z,102159.22
2022-08-10T06:18:27.854Z,102159.56
2022-08-10T06:20:54.725Z,102163.59
2022-08-10T06:23:21.629Z,102166.94
2022-08-10T06:26:09.673Z,102163.56
2022-08-10T06:28:35.626Z,102164.47
2022-08-10T06:31:02.479Z,102156.69
2022-08-10T06:33:31.473Z,102160.66
2022-08-10T06:35:58.438Z,102164.22
2022-08-10T06:38:25.359Z,102159.22
2022-08-10T06:40:52.630Z,102156.72
2022-08-10T06:43:19.426Z,102167.19
2022-08-10T06:45:46.460Z,102165.75
2022-08-10T06:48:33.906Z,102160.34
2022-08-10T06:51:00.742Z,102161.03
2022-08-10T06:53:53.434Z,102159.34
2022-08-10T06:56:14.498Z,102158.25
2022-08-10T06:58:41.617Z,102159.53
2022-08-10T07:01:08.465Z,102158.69
2022-08-10T07:03:35.412Z,102159.63
2022-08-10T07:06:02.298Z,102164.66
2022-08-10T07:08:29.286Z,102160.28
2022-08-10T07:10:56.354Z,102159.16
2022-08-10T07:14:16.325Z,102146.72
2022-08-10T07:16:10.393Z,102149.63
2022-08-10T07:18:37.408Z,102152.91
2022-08-10T07:21:04.205Z,102153.13
2022-08-10T07:23:58.260Z,102157.47
2022-08-10T07:26:17.836Z,102144.28
2022-08-10T07:28:47.981Z,102145.50
2022-08-10T07:31:54.842Z,102144.19
2022-08-10T07:34:04.574Z,102151.16
2022-08-10T07:36:31.751Z,102151.84
2022-08-10T07:38:59.860Z,102154.97
2022-08-10T07:41:28.306Z,102160.84
2022-08-10T07:43:55.130Z,102156.63
2022-08-10T07:46:22.117Z,102154.75
2022-08-10T07:48:49.182Z,102148.56
2022-08-10T07:51:16.107Z,102151.81
2022-08-10T07:53:43.313Z,102150.16
2022-08-10T07:56:26.000Z,102155.28
2022-08-10T07:58:56.958Z,102146.13
2022-08-10T08:01:24.422Z,102149.50
2022-08-10T08:04:10.722Z,102146.59
2022-08-10T08:06:38.229Z,102153.97
2022-08-10T08:09:05.239Z,102142.75
2022-08-10T08:11:32.161Z,102154.19
2022-08-10T08:13:59.009Z,102149.63
2022-08-10T08:16:25.966Z,102145.38
2022-08-10T08:24:06.310Z,102137.13
2022-08-10T08:24:32.407Z,102136.53
2022-08-10T08:27:00.990Z,102147.25
2022-08-10T08:29:27.773Z,102143.00
2022-08-10T08:32:01.513Z,102139.28
2022-08-10T08:34:30.029Z,102141.53
2022-08-10T08:36:59.596Z,102130.50
2022-08-10T08:39:26.854Z,102127.88
2022-08-10T08:41:53.870Z,102135.50
2022-08-10T08:44:20.712Z,102133.94
2022-08-10T08:46:52.706Z,102138.06
2022-08-10T08:50:05.251Z,102130.75
2022-08-10T08:52:18.434Z,102137.47
2022-08-10T08:54:46.895Z,102131.06
2022-08-10T08:57:13.762Z,102123.44
2022-08-10T09:00:01.525Z,102126.84
2022-08-10T09:02:28.334Z,102128.50
2022-08-10T09:04:55.503Z,102115.34
2022-08-10T09:07:59.522Z,102115.59
2022-08-10T09:10:09.233Z,102120.41
2022-08-10T09:12:36.389Z,102110.94
2022-08-10T09:15:03.795Z,102108.00
2022-08-10T09:17:31.380Z,102108.94
2022-08-10T09:19:58.265Z,102108.59
2022-08-10T09:22:25.130Z,102104.50
2022-08-10T09:24:51.965Z,102112.97
2022-08-10T09:27:18.778Z,102111.44
2022-08-10T09:29:45.624Z,102099.88
2022-08-10T09:36:14.520Z,102098.47
2022-08-10T09:36:19.794Z,102098.53
2022-08-10T09:38:02.191Z,102099.47
2022-08-10T09:40:59.655Z,102106.75
2022-08-10T09:43:24.939Z,102099.44
2022-08-10T09:45:53.567Z,102091.97
2022-08-10T09:48:20.345Z,102098.44
2022-08-10T09:53:34.316Z,102096.97
2022-08-10T09:56:17.382Z,102104.41
2022-08-10T09:58:46.401Z,102101.88
2022-08-10T10:01:23.609Z,102103.78
2022-08-10T10:04:00.241Z,102095.53
2022-08-10T10:06:27.065Z,102092.34
2022-08-10T10:08:58.568Z,102086.03
2022-08-10T10:11:37.277Z,102092.78
2022-08-10T10:14:07.221Z,102086.63
2022-08-10T10:16:36.281Z,102074.06
2022-08-10T10:19:03.293Z,102076.78
2022-08-10T10:21:54.478Z,102075.53
2022-08-10T10:24:21.041Z,102065.81
2022-08-10T10:26:49.358Z,102064.41
2022-08-10T10:29:55.668Z,102059.94
2022-08-10T10:32:05.754Z,102052.44
2022-08-10T10:34:32.684Z,102050.56
2022-08-10T10:36:59.529Z,102052.41
2022-08-10T10:39:26.864Z,102043.03
2022-08-10T10:42:04.004Z,102045.72
2022-08-10T10:44:32.415Z,102043.13
2022-08-10T10:46:59.238Z,102045.03
2022-08-10T10:49:28.087Z,102035.31
2022-08-10T10:51:55.079Z,102035.41
2022-08-10T10:54:29.296Z,102029.88
2022-08-10T10:56:56.148Z,102042.94
2022-08-10T10:59:54.431Z,102039.44
2022-08-10T11:02:09.892Z,102041.00
2022-08-10T11:04:36.716Z,102041.16
2022-08-10T11:07:03.883Z,102043.22
2022-08-10T11:10:05.076Z,102040.56
2022-08-10T11:12:17.468Z,102032.94
2022-08-10T11:14:46.463Z,102041.19
2022-08-10T11:17:13.260Z,102038.75
2022-08-10T11:20:02.107Z,102044.22
2022-08-10T11:22:28.080Z,102032.88
2022-08-10T11:24:54.907Z,102038.78
2022-08-10T11:27:22.517Z,102027.16
2022-08-10T11:29:49.805Z,102035.88
2022-08-10T11:32:21.529Z,102035.53
2022-08-10T11:35:11.572Z,102023.94
2022-08-10T11:38:31.712Z,102029.59
2022-08-10T11:40:22.162Z,102016.28
2022-08-10T11:42:49.001Z,102009.81
2022-08-10T11:45:15.797Z,102003.75
2022-08-10T11:47:42.660Z,102009.06
2022-08-10T11:50:09.513Z,102007.91
2022-08-10T11:52:36.431Z,102003.28
2022-08-10T11:55:06.082Z,102013.38
2022-08-10T11:57:54.031Z,102023.94
2022-08-10T12:00:19.672Z,102012.66
2022-08-10T12:02:46.657Z,102008.47
2022-08-10T12:05:17.053Z,102012.09
2022-08-10T12:10:11.122Z,102001.75
2022-08-10T12:10:30.682Z,102013.81
2022-08-10T12:12:57.498Z,102001.06
2022-08-10T12:15:24.364Z,102007.06
2022-08-10T12:17:51.265Z,102005.94
2022-08-10T12:20:19.702Z,102002.84
2022-08-10T12:22:46.528Z,101995.19
2022-08-10T12:25:55.007Z,101991.09
2022-08-10T12:28:00.120Z,101993.78
2022-08-10T12:30:26.955Z,102001.03
2022-08-10T12:32:53.756Z,101996.78
2022-08-10T12:35:21.743Z,101994.63
2022-08-10T12:37:51.101Z,101984.50
2022-08-10T12:40:34.481Z,101979.44
2022-08-10T12:43:12.923Z,101976.38
2022-08-10T12:45:49.548Z,101970.44
2022-08-10T12:48:19.340Z,101977.00
2022-08-10T12:50:46.153Z,101962.00
2022-08-10T12:53:12.941Z,101962.47
2022-08-10T12:55:39.749Z,101959.28
2022-08-10T12:58:58.211Z,101952.13
2022-08-10T13:01:15.117Z,101946.88
2022-08-10T13:04:23.644Z,101943.56
2022-08-10T13:06:28.191Z,101939.41
2022-08-10T13:09:10.107Z,101933.78
2022-08-10T13:12:35.090Z,101934.31
2022-08-10T13:14:24.333Z,101926.63
2022-08-10T13:16:51.221Z,101930.78
2022-08-10T13:19:21.321Z,101927.50
2022-08-10T13:21:48.134Z,101919.41
2022-08-10T13:24:14.949Z,101919.78
2022-08-10T13:27:22.729Z,101914.47
2022-08-10T13:29:28.617Z,101921.78
2022-08-10T13:32:09.142Z,101916.06
2022-08-10T13:34:42.525Z,101917.38
2022-08-10T13:37:12.054Z,101907.63
2022-08-10T13:39:58.383Z,101917.00
2022-08-10T13:42:31.932Z,101903.19
2022-08-10T13:44:59.346Z,101904.94
2022-08-10T13:47:26.142Z,101898.53
2022-08-10T13:49:52.939Z,101899.97
2022-08-10T13:52:20.804Z,101896.06
2022-08-10T13:54:47.681Z,101897.06
2022-08-10T13:57:14.492Z,101884.69
2022-08-10T14:00:34.450Z,101882.25
2022-08-10T14:02:28.497Z,101884.81
2022-08-10T14:04:55.618Z,101883.06
2022-08-10T14:07:22.462Z,101890.13
2022-08-10T14:09:49.259Z,101882.75
2022-08-10T14:12:16.138Z,101884.41
2022-08-10T14:14:42.953Z,101879.91
2022-08-10T14:17:09.769Z,101867.78
2022-08-10T14:19:36.740Z,101879.06
2022-08-10T14:22:10.304Z,101862.59
2022-08-10T14:24:37.160Z,101870.75
2022-08-10T14:27:03.954Z,101872.84
2022-08-10T14:29:30.748Z,101869.59
2022-08-10T14:32:00.677Z,101869.28
2022-08-10T14:34:59.544Z,101870.63
2022-08-10T14:37:15.814Z,101866.59
2022-08-10T14:39:42.667Z,101861.38
2022-08-10T14:42:20.362Z,101857.13
2022-08-10T14:44:52.520Z,101850.47
2022-08-10T14:47:54.131Z,101853.94
2022-08-10T14:50:06.126Z,101849.16
2022-08-10T14:52:32.977Z,101845.19
2022-08-10T14:55:00.460Z,101849.66
2022-08-10T14:58:17.171Z,101845.47
2022-08-10T15:00:31.501Z,101840.41
2022-08-10T15:03:03.716Z,101831.91
2022-08-10T15:05:39.994Z,101839.59
2022-08-10T15:08:08.757Z,101835.47
2022-08-10T15:10:35.588Z,101835.84
2022-08-10T15:13:03.511Z,101844.84
2022-08-10T15:15:31.686Z,101829.66
2022-08-10T15:18:17.551Z,101841.56
2022-08-10T15:20:44.386Z,101829.19
2022-08-10T15:23:31.165Z,101824.59
2022-08-10T15:25:58.695Z,101834.50
2022-08-10T15:28:33.294Z,101833.81
2022-08-10T15:31:12.409Z,101828.97
2022-08-10T15:34:04.482Z,101821.44
2022-08-10T15:37:01.830Z,101822.50
2022-08-10T15:40:21.577Z,101827.03
2022-08-10T15:42:24.426Z,101826.47
2022-08-10T15:44:51.304Z,101823.13
2022-08-10T15:47:18.088Z,101823.50
2022-08-10T15:49:45.226Z,101827.97
2022-08-10T15:52:12.120Z,101824.47
2022-08-10T15:54:59.639Z,101815.97
2022-08-10T15:57:26.487Z,101820.41
2022-08-10T15:59:53.545Z,101815.06
2022-08-10T16:02:24.694Z,101814.66
2022-08-10T16:04:52.153Z,101818.91
2022-08-10T16:07:18.947Z,101808.91
2022-08-10T16:10:24.514Z,101811.53
2022-08-10T16:12:34.378Z,101801.31
2022-08-10T16:15:03.238Z,101809.28
2022-08-10T16:17:31.360Z,101799.06
2022-08-10T16:20:18.168Z,101792.97
2022-08-10T16:22:45.249Z,101795.03
2022-08-10T16:25:12.044Z,101785.22
2022-08-10T16:27:38.861Z,101803.88
2022-08-10T16:30:05.803Z,101801.22
2022-08-10T16:32:32.649Z,101801.41
2022-08-10T16:34:59.546Z,101793.47
2022-08-10T16:37:26.340Z,101798.94
2022-08-10T16:40:13.354Z,101790.91
2022-08-10T16:42:44.719Z,101788.25
2022-08-10T16:45:12.011Z,101787.69
2022-08-10T16:47:39.011Z,101787.16
2022-08-10T16:50:05.993Z,101784.78
2022-08-10T16:52:33.412Z,101786.84
2022-08-10T16:55:00.308Z,101786.34
2022-08-10T16:57:43.765Z,101780.81
2022-08-10T17:00:10.685Z,101793.38
2022-08-10T17:02:37.482Z,101778.06
2022-08-10T17:05:04.589Z,101785.03
2022-08-10T17:07:31.400Z,101780.22
2022-08-10T17:09:58.343Z,101785.78
2022-08-10T17:12:25.163Z,101781.34
2022-08-10T17:15:09.267Z,101773.59
2022-08-10T17:17:38.041Z,101778.38
2022-08-10T17:20:30.636Z,101771.34
2022-08-10T17:22:54.930Z,101769.25
2022-08-10T17:25:21.907Z,101774.13
2022-08-10T17:28:05.293Z,101780.53
2022-08-10T17:30:51.489Z,101770.59
2022-08-10T17:33:22.739Z,101773.97
2022-08-10T17:35:49.669Z,101779.19
2022-08-10T17:38:16.483Z,101773.88
2022-08-10T17:40:43.286Z,101776.81
2022-08-10T17:43:10.097Z,101773.47
2022-08-10T17:45:48.312Z,101762.28
2022-08-10T17:48:16.105Z,101766.22
2022-08-10T17:50:43.086Z,101778.66
2022-08-10T17:53:10.012Z,101763.88
2022-08-10T17:55:36.883Z,101778.44
2022-08-10T17:58:03.735Z,101769.59
2022-08-10T18:00:30.636Z,101773.69
2022-08-10T18:02:57.448Z,101771.09
2022-08-10T18:05:24.245Z,101763.44
2022-08-10T18:07:51.105Z,101771.53
2022-08-10T18:10:18.131Z,101771.16
2022-08-10T18:12:45.003Z,101770.50
2022-08-10T18:15:11.926Z,101767.38
2022-08-10T18:17:39.790Z,101769.94
2022-08-10T18:20:06.856Z,101765.31
2022-08-10T18:22:33.713Z,101765.66
2022-08-10T18:25:00.578Z,101772.69
2022-08-10T18:28:01.191Z,101763.22
2022-08-10T18:30:14.573Z,101774.34
2022-08-10T18:32:41.397Z,101774.84
2022-08-10T18:35:08.207Z,101779.97
2022-08-10T18:37:35.115Z,101784.22
2022-08-10T18:40:02.009Z,101784.50
2022-08-10T18:42:28.822Z,101784.75
2022-08-10T18:44:55.740Z,101783.84
2022-08-10T18:47:22.586Z,101783.78
2022-08-10T18:49:49.411Z,101793.28
2022-08-10T18:52:16.241Z,101793.13
2022-08-10T18:54:45.301Z,101792.22
2022-08-10T18:57:12.729Z,101796.59
2022-08-10T18:59:39.675Z,101795.72
2022-08-10T19:02:28.748Z,101800.38
2022-08-10T19:04:55.693Z,101798.91
2022-08-10T19:07:22.473Z,101797.69
2022-08-10T19:09:49.301Z,101799.16
2022-08-10T19:12:30.425Z,101796.78
2022-08-10T19:14:58.343Z,101804.91
2022-08-10T19:17:25.149Z,101793.94
2022-08-10T19:20:12.034Z,101796.63
2022-08-10T19:22:38.826Z,101799.63
2022-08-10T19:25:05.769Z,101791.59
2022-08-10T19:27:32.623Z,101804.22
2022-08-10T19:30:08.969Z,101796.78
2022-08-10T19:32:40.468Z,101795.47
2022-08-10T19:35:07.283Z,101810.50
2022-08-10T19:37:34.152Z,101804.84
2022-08-10T19:40:01.070Z,101804.59
2022-08-10T19:42:31.006Z,101799.06
2022-08-10T19:44:58.493Z,101796.31
2022-08-10T19:47:25.295Z,101806.59
2022-08-10T19:49:52.115Z,101811.94
2022-08-10T19:52:19.530Z,101805.50
2022-08-10T19:54:46.339Z,101810.31
2022-08-10T19:57:17.136Z,101810.91
2022-08-10T20:00:01.990Z,101806.59
2022-08-10T20:02:30.871Z,101805.94
2022-08-10T20:04:57.765Z,101809.53
2022-08-10T20:07:24.558Z,101803.97
2022-08-10T20:09:51.365Z,101803.59
2022-08-10T20:12:23.905Z,101805.19
2022-08-10T20:14:50.755Z,101805.25
2022-08-10T20:17:17.589Z,101793.59
2022-08-10T20:19:52.693Z,101798.78
2022-08-10T20:22:29.815Z,101800.94
2022-08-10T20:25:01.480Z,101809.63
2022-08-10T20:27:44.299Z,101801.16
2022-08-10T20:30:15.616Z,101809.84
2022-08-10T20:32:42.437Z,101814.16
2022-08-10T20:35:09.268Z,101813.06
2022-08-10T20:38:02.703Z,101814.38
2022-08-10T20:40:23.273Z,101822.13
2022-08-10T20:42:50.238Z,101823.06
2022-08-10T20:45:21.592Z,101821.19
2022-08-10T20:47:54.057Z,101823.50
2022-08-10T20:50:21.503Z,101828.47
2022-08-10T20:52:48.306Z,101814.56
2022-08-10T20:55:15.159Z,101830.25
2022-08-10T20:57:55.192Z,101828.91
2022-08-10T21:00:24.011Z,101827.44
2022-08-10T21:02:51.206Z,101834.06
2022-08-10T21:05:18.030Z,101828.31
2022-08-10T21:08:01.052Z,101823.00
2022-08-10T21:10:28.789Z,101826.84
2022-08-10T21:12:56.634Z,101824.47
2022-08-10T21:15:23.432Z,101815.28
2022-08-10T21:17:50.416Z,101816.56
2022-08-10T21:20:17.301Z,101824.50
2022-08-10T21:25:30.910Z,101822.31
2022-08-10T21:25:41.747Z,101822.75
2022-08-10T21:27:59.338Z,101817.72
2022-08-10T21:30:26.105Z,101818.03
2022-08-10T21:32:54.384Z,101819.09
2022-08-10T21:35:37.395Z,101809.91
2022-08-10T21:38:08.035Z,101809.72
2022-08-10T21:40:36.100Z,101808.75
2022-08-10T21:43:21.777Z,101807.25
2022-08-10T21:46:07.129Z,101810.44
2022-08-10T21:48:57.782Z,101803.19
2022-08-10T21:52:01.434Z,101812.09
2022-08-10T21:54:49.174Z,101803.69
2022-08-10T21:57:43.534Z,101794.00
2022-08-10T22:00:29.752Z,101804.91
2022-08-10T22:03:15.332Z,101803.84
2022-08-10T22:06:03.541Z,101800.28
2022-08-10T22:08:48.894Z,101803.75
2022-08-10T22:11:37.198Z,101800.41
2022-08-10T22:14:23.593Z,101802.34
2022-08-10T22:18:01.243Z,101797.22
2022-08-10T22:20:16.725Z,101801.16
2022-08-10T22:23:18.820Z,101790.78
2022-08-10T22:26:04.733Z,101790.22
2022-08-10T22:28:50.010Z,101790.16
2022-08-10T22:34:25.808Z,101794.91
2022-08-10T22:37:11.473Z,101792.44
2022-08-10T22:40:08.097Z,101799.75
2022-08-10T22:43:10.923Z,101799.28
2022-08-10T22:45:57.922Z,101803.75
2022-08-10T22:48:43.507Z,101805.59
2022-08-10T22:51:10.672Z,101798.66
2022-08-10T22:53:56.073Z,101802.38
2022-08-10T22:56:41.356Z,101803.34
2022-08-10T22:59:08.196Z,101796.91
2022-08-10T23:02:08.897Z,101799.00
2022-08-10T23:04:34.746Z,101797.56
2022-08-10T23:07:03.409Z,101794.72
2022-08-10T23:09:30.238Z,101798.31
2022-08-10T23:11:57.029Z,101783.16
2022-08-10T23:14:33.377Z,101794.19
2022-08-10T23:17:18.744Z,101791.94
2022-08-10T23:19:45.595Z,101782.72
2022-08-10T23:22:12.543Z,101790.25
2022-08-10T23:24:39.323Z,101791.59
2022-08-10T23:27:12.483Z,101781.78
2022-08-10T23:30:03.737Z,101784.22
2022-08-10T23:32:37.028Z,101781.66
2022-08-10T23:36:30.366Z,101784.34
2022-08-10T23:37:50.691Z,101778.81
2022-08-10T23:40:17.918Z,101780.56
2022-08-10T23:42:44.719Z,101777.34
2022-08-10T23:45:11.525Z,101776.81
2022-08-10T23:47:38.488Z,101777.22
2022-08-10T23:50:06.069Z,101776.28
2022-08-10T23:52:33.016Z,101771.53
2022-08-10T23:55:00.022Z,101771.19
2022-08-10T23:57:26.952Z,101777.44
2022-08-10T23:59:53.840Z,101779.34
